Terminal Aerodrome Forecast
Issued by NWS

Home | Current Version | Previous Version | Text Only | Print | Product List | Glossary On
Versions: 1 2 3 4 5 6 7 8 9 10 11 12 13 14 15 16 17 18 19 20 21 22 23 24 25 26 27 28 29 30 31 32 33 34 35 36 37 38 39 40 41 42 43 44 45 46 47 48 49
179
FTUS44 KHGX 271517 AAB
TAFCXO
TAF AMD
KCXO 271517Z 2715/2812 VRB04KT P6SM VCTS BKN035CB
      TEMPO 2715/2717 VRB15G25KT 5SM TSRA BKN020CB
     FM271800 18010KT P6SM VCTS BKN040CB
     FM272100 17010KT P6SM BKN050 BKN120
     FM280000 17006KT P6SM SCT250
     FM281000 VRB04KT 6SM BR SCT020=

USA.gov is the U.S. government's official web portal to all federal, state and local government web resources and services.